Ana Sayfa
METAR-TAF:

METAR-TAF

Havaalanları :

Brüksel Havalimanı

Brüksel, Belçika

Enlem: 50-54N, Boylam: 004-32E, yükseklik: 55 m

Güncel hava durumu gözlemi

Rapor saat 17:20 UTC de 22 dakika önce yapıldı.
Rüzgar güney/güneydoğudan 9 kt
Sıcaklık 21°C
Nem 25%
Basınç 1016 hPa
Görüş mesafesi 10 km veya daha fazla
1500 m altında bulut yok ve kümülonimbus yok

METAR: EBBR 051720Z 15009KT CAVOK 21/M00 Q1016 NOSIG

Saat: 19:42 (17:42 UTC)

Tahmin

Rapor saat 17:00 UTC de 42 dakika önce yapıldı.
Ayın 05'si saat 18 UTC'den ayın 06'si saat 24 UTC'ye kadar geçerli Tahmin
Rüzgar güneydoğudan 6 kt
Görüş mesafesi 10 km veya daha fazla
1500 m altında bulut yok ve kümülonimbus yok
Dönüşüyor
ayın 06'si saat 12 UTC'den ayın 06'si saat 16 UTC'ye kadar
Rüzgar batı/güneybatıdan 11 kt
Geçici
ayın 06'si saat 17 UTC'den ayın 06'si saat 19 UTC'ye kadar
Görüş mesafesi: 4000 m
yağmur

TAF: EBBR 051700Z 0518/0624 14006KT CAVOK BECMG 0612/0616 24011KT TEMPO 0617/0619 4000 RA

4.000'den fazla havaalanı için hava durumu gözlemleri ve tahminleri (METAR ve TAF raporları).

Kullanılabilir istasyonlar harita üzerinde sarı ve kırmızı noktalarla gösterilir.

İstasyonun adını görmek için fareyi noktanın üzerinde gezdirin.

Sonrasında hava gözlem ve tahminlerini görmek için tıklayın.

Haritayı değiştirmek için: yaklaştırmak için siyah artı işaretli yeşil düğmeye ve uzaklaştırmak için de eksi işaretli düğmeye hızla tıklayın; bitişik haritalar için yeşil okları kullanın.


METAR-TAF: